Arroyo, Texas
Current Conditions -  °F | °C
As of 1:52 AM on Thursday 29 Jan 2015 (Local Time) from KHRL Reporting Station
Haze Haze  
Wind Chill: 55°   Ceiling: Unl
Heat Index: 55°   Visibility: 6mi
Dew Point: 55°   Wind: 7mph
Humidity: 100%   Direction: 140°SE
Pressure: 30.13"   Gusts: NA
Location:  26.2089°N, 97.6849°W
Report Text: KHRL 290752Z 14006KT 6SM BR CLR 13/13 A3013 RMK AO2 SLP202 T01280128
Loading
Personal Weather Stations






























Interactive Weather Map New forecast layout! Learn more

10-Day Weather Forecast

Advertisements
Track Severe Weather on mobile